Houwa Maru — JL6394 — position and weather

sailwx.info

Track history (hours):
 
Tides and Currents Weather Stations Pressure Air Temp Water Temp Dewpoint Dewpoint Depression Visibility Wind Speed Wind Dir Waves Ship Positions

Houwa Maru

Last reported at 2015-May-20 09:29 UTC. Time now 2015-May-26 03:41 UTC.
Position N 35°07' E 139°40'.

Length 76 m.

Type: Ship. MMSI: 431500378.

Date/timePositionNaut miles runAvg speedWind from/ knotsBaromVisibWave heightAir tempDewpointWater temp
2015-May-20 09:29N 35°07' E 139°40'1010.2
2015-May-20 08:31N 35°16' E 139°46'9 9.7
2015-May-20 07:33N 35°25' E 139°44'1111.0
2015-May-20 06:33N 35°32' E 139°54'9 8.8
2015-May-20 05:33N 35°41' E 139°57'0 0.0
2015-May-20 04:30N 35°41' E 139°57'0 0.0
2015-May-20 03:21N 35°41' E 139°57'0 0.0
2015-May-20 02:33N 35°41' E 139°57'0 0.0
2015-May-20 01:30N 35°41' E 139°57'0 0.0
2015-May-20 00:33N 35°41' E 139°57'0 0.0
2015-May-19 23:30N 35°41' E 139°57'0 0.0
2015-May-19 22:27N 35°41' E 139°57'0 0.0
2015-May-19 21:30N 35°41' E 139°57'0 0.0
2015-May-19 20:30N 35°41' E 139°57'0 0.0
2015-May-19 19:33N 35°41' E 139°57'0 0.0
2015-May-19 18:33N 35°41' E 139°57'0 0.0
2015-May-19 17:27N 35°41' E 139°57'0 0.0
2015-May-19 16:33N 35°41' E 139°57'0 0.0
2015-May-19 15:33N 35°41' E 139°57'0 0.0
2015-May-19 14:33N 35°41' E 139°57'0 0.0
2015-May-19 13:33N 35°41' E 139°57'0 0.0
2015-May-19 12:33N 35°41' E 139°57'0 0.0
2015-May-19 11:33N 35°41' E 139°57'0 0.0
2015-May-19 10:30N 35°41' E 139°57'0 0.0
2015-May-19 09:33N 35°41' E 139°57'0 0.0
2015-May-19 08:33N 35°41' E 139°57'0 0.0
2015-May-19 07:33N 35°41' E 139°57'0 0.0
2015-May-19 06:21N 35°41' E 139°57'0 0.0
2015-May-19 05:18N 35°41' E 139°57'0 0.0
2015-May-19 04:27N 35°41' E 139°57'0 0.0
2015-May-19 03:06N 35°41' E 139°57'0 0.0
2015-May-19 02:33N 35°41' E 139°57'0 0.0
2015-May-19 01:27N 35°41' E 139°57'0 0.0
2015-May-19 00:30N 35°41' E 139°57'3 3.6
2015-May-18 23:34N 35°38' E 139°58'0 0.1
2015-May-18 22:33N 35°37' E 139°58'0 0.0
2015-May-18 21:33N 35°37' E 139°58'0 0.0
2015-May-18 20:15N 35°37' E 139°58'0 0.0
2015-May-18 19:27N 35°38' E 139°58'0 0.0
2015-May-18 18:09N 35°38' E 139°58'0 0.0
2015-May-18 17:33N 35°38' E 139°58'0 0.0
2015-May-18 16:26N 35°38' E 139°58'0 0.0
2015-May-18 15:27N 35°38' E 139°58'0 0.0
2015-May-18 14:09N 35°38' E 139°58'0 0.1
2015-May-18 13:33N 35°38' E 139°58'0 0.0
2015-May-18 12:27N 35°38' E 139°58'0 0.1
2015-May-18 11:33N 35°38' E 139°58'0 0.0
2015-May-18 10:27N 35°38' E 139°58'0 0.0
2015-May-18 09:33N 35°38' E 139°58'0 0.0
2015-May-18 08:33N 35°38' E 139°58'0 0.0
2015-May-18 07:30N 35°37' E 139°58'8 8.5
2015-May-18 06:33N 35°32' E 139°51'9 8.6
2015-May-18 05:33N 35°27' E 139°42'1 1.4
2015-May-18 04:28N 35°27' E 139°41'0 0.0
2015-May-18 03:28N 35°27' E 139°41'0 0.0
2015-May-18 02:10N 35°27' E 139°41'0 0.0
2015-May-18 01:31N 35°27' E 139°41'0 0.0
2015-May-17 23:25N 35°27' E 139°41'1 1.0
2015-May-17 22:34N 35°27' E 139°41'1 0.6
2015-May-17 21:31N 35°27' E 139°42'0 0.0
2015-May-17 20:25N 35°27' E 139°42'0 0.1
2015-May-17 19:16N 35°27' E 139°42'0 0.0
2015-May-17 18:31N 35°27' E 139°42'0 0.0
2015-May-17 17:31N 35°27' E 139°42'0 0.0
2015-May-17 16:25N 35°27' E 139°42'0 0.0
2015-May-17 15:31N 35°27' E 139°42'0 0.0
2015-May-17 14:25N 35°27' E 139°42'0 0.0
2015-May-17 13:31N 35°27' E 139°42'0 0.0
2015-May-17 12:25N 35°27' E 139°42'0 0.1
2015-May-17 11:31N 35°27' E 139°42'0 0.0
2015-May-17 10:25N 35°27' E 139°42'0 0.0
2015-May-17 09:13N 35°27' E 139°42'0 0.1
2015-May-17 08:31N 35°27' E 139°42'0 0.0
2015-May-17 07:25N 35°27' E 139°42'0 0.0
2015-May-17 06:31N 35°27' E 139°42'0 0.0
2015-May-17 05:19N 35°27' E 139°42'0 0.0
2015-May-17 04:31N 35°27' E 139°42'0 0.0
2015-May-17 03:25N 35°27' E 139°42'0 0.0
2015-May-17 02:25N 35°27' E 139°42'0 0.0
2015-May-17 01:31N 35°27' E 139°42'0 0.0
2015-May-17 00:31N 35°27' E 139°42'0 0.0
2015-May-16 23:31N 35°27' E 139°42'0 0.0
2015-May-16 22:19N 35°27' E 139°42'0 0.0
2015-May-16 20:31N 35°27' E 139°42'0 0.0
2015-May-16 19:31N 35°27' E 139°42'0 0.0
2015-May-16 18:25N 35°27' E 139°42'0 0.0
2015-May-16 17:19N 35°27' E 139°42'0 0.0
2015-May-16 16:25N 35°27' E 139°42'0 0.0
2015-May-16 15:25N 35°27' E 139°42'0 0.0
2015-May-16 13:25N 35°27' E 139°42'0 0.0
2015-May-16 12:31N 35°27' E 139°42'0 0.0
2015-May-16 11:28N 35°27' E 139°42'0 0.0
2015-May-16 10:31N 35°27' E 139°42'0 0.0
2015-May-16 09:28N 35°27' E 139°42'0 0.0
2015-May-16 08:19N 35°27' E 139°42'0 0.0
2015-May-16 07:19N 35°27' E 139°42'0 0.0
2015-May-16 06:31N 35°27' E 139°42'0 0.0
2015-May-16 05:28N 35°27' E 139°42'3 3.0
2015-May-16 04:33N 35°24' E 139°43'1210.5
2015-May-16 03:26N 35°13' E 139°47'234 8.0
2015-May-14 22:15N 34°29' E 135°07'810.9
2015-May-14 21:33N 34°35' E 135°12'8 5.5
2015-May-14 20:10N 34°42' E 135°15'0 0.0
2015-May-14 19:28N 34°42' E 135°15'0 0.0
2015-May-14 18:28N 34°42' E 135°15'0 0.0
2015-May-14 17:28N 34°42' E 135°15'0 0.0
2015-May-14 16:28N 34°42' E 135°15'0 0.0
2015-May-14 15:28N 34°42' E 135°15'0 0.0
2015-May-14 14:28N 34°42' E 135°15'0 0.0
2015-May-14 13:28N 34°42' E 135°15'0 0.0
2015-May-14 12:28N 34°42' E 135°15'0 0.0
2015-May-14 11:10N 34°42' E 135°15'0 0.0
2015-May-14 10:28N 34°42' E 135°15'0 0.0
2015-May-14 09:28N 34°42' E 135°15'0 0.0
2015-May-14 08:28N 34°42' E 135°15'0 0.0
2015-May-14 07:28N 34°42' E 135°15'0 0.0
2015-May-14 06:28N 34°42' E 135°15'0 0.0
2015-May-14 05:28N 34°42' E 135°15'0 0.0
2015-May-14 04:28N 34°42' E 135°15'0 0.0
2015-May-14 03:28N 34°42' E 135°15'0 0.0
2015-May-14 02:22N 34°42' E 135°15'0 0.0
2015-May-14 01:28N 34°42' E 135°15'0 0.0
2015-May-14 00:16N 34°42' E 135°15'0 0.0
2015-May-13 23:28N 34°42' E 135°15'1 1.6
2015-May-13 22:33N 34°41' E 135°15'3 2.5
2015-May-13 21:31N 34°39' E 135°18'0 0.1
2015-May-13 20:31N 34°39' E 135°18'0 0.0
2015-May-13 19:31N 34°39' E 135°18'0 0.0
2015-May-13 18:31N 34°39' E 135°18'0 0.0
2015-May-13 17:31N 34°39' E 135°18'0 0.0
2015-May-13 16:31N 34°39' E 135°18'0 0.0
2015-May-13 15:31N 34°39' E 135°18'0 0.0
2015-May-13 14:31N 34°39' E 135°18'0 0.0
2015-May-13 13:25N 34°39' E 135°18'0 0.0
2015-May-13 12:31N 34°39' E 135°18'0 0.0
2015-May-13 11:31N 34°39' E 135°18'0 0.0
2015-May-13 10:31N 34°39' E 135°18'0 0.0
2015-May-13 09:25N 34°39' E 135°18'0 0.0
2015-May-13 08:31N 34°39' E 135°18'7 6.8
2015-May-13 07:33N 34°37' E 135°25'1 0.1
2015-May-12 23:12N 34°37' E 135°26'0 0.0
2015-May-12 20:18N 34°37' E 135°26'0 0.0
2015-May-12 10:12N 34°37' E 135°26'0 0.0
2015-May-11 22:26N 34°37' E 135°26'3 3.1
2015-May-11 21:33N 34°36' E 135°23'  
Track history (hours):
 
Tides and Currents Weather Stations Pressure Air Temp Water Temp Dewpoint Dewpoint Depression Visibility Wind Speed Wind Dir Waves Ship Positions

Houwa Maru

Last reported at 2015-May-20 09:29 UTC. Time now 2015-May-26 03:41 UTC.
Position N 35°07' E 139°40'.

Length 76 m.

Type: Ship. MMSI: 431500378.

Date/timePositionNaut miles runAvg speedWind from/ knotsBaromVisibWave heightAir tempDewpointWater temp
2015-May-20 09:29N 35°07' E 139°40'1010.2
2015-May-20 08:31N 35°16' E 139°46'9 9.7
2015-May-20 07:33N 35°25' E 139°44'1111.0
2015-May-20 06:33N 35°32' E 139°54'9 8.8
2015-May-20 05:33N 35°41' E 139°57'0 0.0
2015-May-20 04:30N 35°41' E 139°57'0 0.0
2015-May-20 03:21N 35°41' E 139°57'0 0.0
2015-May-20 02:33N 35°41' E 139°57'0 0.0
2015-May-20 01:30N 35°41' E 139°57'0 0.0
2015-May-20 00:33N 35°41' E 139°57'0 0.0
2015-May-19 23:30N 35°41' E 139°57'0 0.0
2015-May-19 22:27N 35°41' E 139°57'0 0.0
2015-May-19 21:30N 35°41' E 139°57'0 0.0
2015-May-19 20:30N 35°41' E 139°57'0 0.0
2015-May-19 19:33N 35°41' E 139°57'0 0.0
2015-May-19 18:33N 35°41' E 139°57'0 0.0
2015-May-19 17:27N 35°41' E 139°57'0 0.0
2015-May-19 16:33N 35°41' E 139°57'0 0.0
2015-May-19 15:33N 35°41' E 139°57'0 0.0
2015-May-19 14:33N 35°41' E 139°57'0 0.0
2015-May-19 13:33N 35°41' E 139°57'0 0.0
2015-May-19 12:33N 35°41' E 139°57'0 0.0
2015-May-19 11:33N 35°41' E 139°57'0 0.0
2015-May-19 10:30N 35°41' E 139°57'0 0.0
2015-May-19 09:33N 35°41' E 139°57'0 0.0
2015-May-19 08:33N 35°41' E 139°57'0 0.0
2015-May-19 07:33N 35°41' E 139°57'0 0.0
2015-May-19 06:21N 35°41' E 139°57'0 0.0
2015-May-19 05:18N 35°41' E 139°57'0 0.0
2015-May-19 04:27N 35°41' E 139°57'0 0.0
2015-May-19 03:06N 35°41' E 139°57'0 0.0
2015-May-19 02:33N 35°41' E 139°57'0 0.0
2015-May-19 01:27N 35°41' E 139°57'0 0.0
2015-May-19 00:30N 35°41' E 139°57'3 3.6
2015-May-18 23:34N 35°38' E 139°58'0 0.1
2015-May-18 22:33N 35°37' E 139°58'0 0.0
2015-May-18 21:33N 35°37' E 139°58'0 0.0
2015-May-18 20:15N 35°37' E 139°58'0 0.0
2015-May-18 19:27N 35°38' E 139°58'0 0.0
2015-May-18 18:09N 35°38' E 139°58'0 0.0
2015-May-18 17:33N 35°38' E 139°58'0 0.0
2015-May-18 16:26N 35°38' E 139°58'0 0.0
2015-May-18 15:27N 35°38' E 139°58'0 0.0
2015-May-18 14:09N 35°38' E 139°58'0 0.1
2015-May-18 13:33N 35°38' E 139°58'0 0.0
2015-May-18 12:27N 35°38' E 139°58'0 0.1
2015-May-18 11:33N 35°38' E 139°58'0 0.0
2015-May-18 10:27N 35°38' E 139°58'0 0.0
2015-May-18 09:33N 35°38' E 139°58'0 0.0
2015-May-18 08:33N 35°38' E 139°58'0 0.0
2015-May-18 07:30N 35°37' E 139°58'8 8.5
2015-May-18 06:33N 35°32' E 139°51'9 8.6
2015-May-18 05:33N 35°27' E 139°42'1 1.4
2015-May-18 04:28N 35°27' E 139°41'0 0.0
2015-May-18 03:28N 35°27' E 139°41'0 0.0
2015-May-18 02:10N 35°27' E 139°41'0 0.0
2015-May-18 01:31N 35°27' E 139°41'0 0.0
2015-May-17 23:25N 35°27' E 139°41'1 1.0
2015-May-17 22:34N 35°27' E 139°41'1 0.6
2015-May-17 21:31N 35°27' E 139°42'0 0.0
2015-May-17 20:25N 35°27' E 139°42'0 0.1
2015-May-17 19:16N 35°27' E 139°42'0 0.0
2015-May-17 18:31N 35°27' E 139°42'0 0.0
2015-May-17 17:31N 35°27' E 139°42'0 0.0
2015-May-17 16:25N 35°27' E 139°42'0 0.0
2015-May-17 15:31N 35°27' E 139°42'0 0.0
2015-May-17 14:25N 35°27' E 139°42'0 0.0
2015-May-17 13:31N 35°27' E 139°42'0 0.0
2015-May-17 12:25N 35°27' E 139°42'0 0.1
2015-May-17 11:31N 35°27' E 139°42'0 0.0
2015-May-17 10:25N 35°27' E 139°42'0 0.0
2015-May-17 09:13N 35°27' E 139°42'0 0.1
2015-May-17 08:31N 35°27' E 139°42'0 0.0
2015-May-17 07:25N 35°27' E 139°42'0 0.0
2015-May-17 06:31N 35°27' E 139°42'0 0.0
2015-May-17 05:19N 35°27' E 139°42'0 0.0
2015-May-17 04:31N 35°27' E 139°42'0 0.0
2015-May-17 03:25N 35°27' E 139°42'0 0.0
2015-May-17 02:25N 35°27' E 139°42'0 0.0
2015-May-17 01:31N 35°27' E 139°42'0 0.0
2015-May-17 00:31N 35°27' E 139°42'0 0.0
2015-May-16 23:31N 35°27' E 139°42'0 0.0
2015-May-16 22:19N 35°27' E 139°42'0 0.0
2015-May-16 20:31N 35°27' E 139°42'0 0.0
2015-May-16 19:31N 35°27' E 139°42'0 0.0
2015-May-16 18:25N 35°27' E 139°42'0 0.0
2015-May-16 17:19N 35°27' E 139°42'0 0.0
2015-May-16 16:25N 35°27' E 139°42'0 0.0
2015-May-16 15:25N 35°27' E 139°42'0 0.0
2015-May-16 13:25N 35°27' E 139°42'0 0.0
2015-May-16 12:31N 35°27' E 139°42'0 0.0
2015-May-16 11:28N 35°27' E 139°42'0 0.0
2015-May-16 10:31N 35°27' E 139°42'0 0.0
2015-May-16 09:28N 35°27' E 139°42'0 0.0
2015-May-16 08:19N 35°27' E 139°42'0 0.0
2015-May-16 07:19N 35°27' E 139°42'0 0.0
2015-May-16 06:31N 35°27' E 139°42'0 0.0
2015-May-16 05:28N 35°27' E 139°42'3 3.0
2015-May-16 04:33N 35°24' E 139°43'1210.5
2015-May-16 03:26N 35°13' E 139°47'234 8.0
2015-May-14 22:15N 34°29' E 135°07'810.9
2015-May-14 21:33N 34°35' E 135°12'8 5.5
2015-May-14 20:10N 34°42' E 135°15'0 0.0
2015-May-14 19:28N 34°42' E 135°15'0 0.0
2015-May-14 18:28N 34°42' E 135°15'0 0.0
2015-May-14 17:28N 34°42' E 135°15'0 0.0
2015-May-14 16:28N 34°42' E 135°15'0 0.0
2015-May-14 15:28N 34°42' E 135°15'0 0.0
2015-May-14 14:28N 34°42' E 135°15'0 0.0
2015-May-14 13:28N 34°42' E 135°15'0 0.0
2015-May-14 12:28N 34°42' E 135°15'0 0.0
2015-May-14 11:10N 34°42' E 135°15'0 0.0
2015-May-14 10:28N 34°42' E 135°15'0 0.0
2015-May-14 09:28N 34°42' E 135°15'0 0.0
2015-May-14 08:28N 34°42' E 135°15'0 0.0
2015-May-14 07:28N 34°42' E 135°15'0 0.0
2015-May-14 06:28N 34°42' E 135°15'0 0.0
2015-May-14 05:28N 34°42' E 135°15'0 0.0
2015-May-14 04:28N 34°42' E 135°15'0 0.0
2015-May-14 03:28N 34°42' E 135°15'0 0.0
2015-May-14 02:22N 34°42' E 135°15'0 0.0
2015-May-14 01:28N 34°42' E 135°15'0 0.0
2015-May-14 00:16N 34°42' E 135°15'0 0.0
2015-May-13 23:28N 34°42' E 135°15'1 1.6
2015-May-13 22:33N 34°41' E 135°15'3 2.5
2015-May-13 21:31N 34°39' E 135°18'0 0.1
2015-May-13 20:31N 34°39' E 135°18'0 0.0
2015-May-13 19:31N 34°39' E 135°18'0 0.0
2015-May-13 18:31N 34°39' E 135°18'0 0.0
2015-May-13 17:31N 34°39' E 135°18'0 0.0
2015-May-13 16:31N 34°39' E 135°18'0 0.0
2015-May-13 15:31N 34°39' E 135°18'0 0.0
2015-May-13 14:31N 34°39' E 135°18'0 0.0
2015-May-13 13:25N 34°39' E 135°18'0 0.0
2015-May-13 12:31N 34°39' E 135°18'0 0.0
2015-May-13 11:31N 34°39' E 135°18'0 0.0
2015-May-13 10:31N 34°39' E 135°18'0 0.0
2015-May-13 09:25N 34°39' E 135°18'0 0.0
2015-May-13 08:31N 34°39' E 135°18'7 6.8
2015-May-13 07:33N 34°37' E 135°25'1 0.1
2015-May-12 23:12N 34°37' E 135°26'0 0.0
2015-May-12 20:18N 34°37' E 135°26'0 0.0
2015-May-12 10:12N 34°37' E 135°26'0 0.0
2015-May-11 22:26N 34°37' E 135°26'3 3.1
2015-May-11 21:33N 34°36' E 135°23'  

Dump ship's entire track history